Time;durP1;ratioP1;P1;durP2;ratioP2;P2;SDS_P1;SDS_P2;PMS_P1;PMS_P2;Temp;Humidity;BMP_temperature;BMP_pressure;BME280_temperature;BME280_humidity;BME280_pressure;Samples;Min_cycle;Max_cycle;Signal;HPM_P1;HPM_P2
2023/08/07 00:00:25;;;;;;;8.27;5.63;;;;;;;;;;5088832;28;20051;-62
2023/08/07 00:02:51;;;;;;;9.35;5.80;;;;;;;;;;5087446;28;20459;-62
2023/08/07 00:05:17;;;;;;;9.98;6.13;;;;;;;;;;5088408;28;20418;-62
2023/08/07 00:07:43;;;;;;;7.25;5.80;;;;;;;;;;5093250;28;20123;-62
2023/08/07 00:10:10;;;;;;;10.30;5.90;;;;;;;;;;5109079;28;20160;-62
2023/08/07 00:12:36;;;;;;;8.50;5.80;;;;;;;;;;5108386;28;20421;-62
2023/08/07 00:15:02;;;;;;;11.43;5.30;;;;;;;;;;5110139;28;20044;-62
2023/08/07 00:17:28;;;;;;;9.20;5.80;;;;;;;;;;5112637;28;20039;-62
2023/08/07 00:19:55;;;;;;;8.55;5.07;;;;;;;;;;5112432;28;20032;-62
2023/08/07 00:22:20;;;;;;;8.43;5.00;;;;;;;;;;5112644;28;20046;-62
2023/08/07 00:24:46;;;;;;;7.47;4.40;;;;;;;;;;5112470;28;20036;-62
2023/08/07 00:27:14;;;;;;;5.90;4.45;;;;;;;;;;5111793;28;20039;-62
2023/08/07 00:29:40;;;;;;;8.75;5.15;;;;;;;;;;5112699;28;20430;-62
2023/08/07 00:32:06;;;;;;;7.70;4.75;;;;;;;;;;5112463;28;20039;-62
2023/08/07 00:34:32;;;;;;;10.98;5.47;;;;;;;;;;5111438;28;20118;-62
2023/08/07 00:36:58;;;;;;;7.72;4.82;;;;;;;;;;5112185;28;20131;-62
2023/08/07 00:39:24;;;;;;;6.63;4.65;;;;;;;;;;5112264;28;20469;-62
2023/08/07 00:41:50;;;;;;;7.82;4.70;;;;;;;;;;5111955;28;20408;-62
2023/08/07 00:44:16;;;;;;;9.07;4.32;;;;;;;;;;5112195;28;20038;-62
2023/08/07 00:46:42;;;;;;;5.57;3.88;;;;;;;;;;5111753;28;20422;-62
2023/08/07 00:49:09;;;;;;;6.97;3.92;;;;;;;;;;5111549;28;20040;-62
2023/08/07 00:51:36;;;;;;;10.63;4.47;;;;;;;;;;5112188;28;20047;-62
2023/08/07 00:54:02;;;;;;;7.70;3.92;;;;;;;;;;5111577;28;20346;-62
2023/08/07 00:56:28;;;;;;;7.20;4.15;;;;;;;;;;5111650;28;20067;-62
2023/08/07 00:58:54;;;;;;;8.98;4.10;;;;;;;;;;5111902;28;20082;-62
2023/08/07 01:01:20;;;;;;;6.78;3.75;;;;;;;;;;5111796;28;20043;-62
2023/08/07 01:03:46;;;;;;;6.15;3.45;;;;;;;;;;5111368;28;20337;-62
2023/08/07 01:06:12;;;;;;;6.68;4.10;;;;;;;;;;5111644;28;20066;-62
2023/08/07 01:08:38;;;;;;;7.72;3.95;;;;;;;;;;5111627;28;20051;-62
2023/08/07 01:11:10;;;;;;;8.10;3.67;;;;;;;;;;5111532;28;20122;-62
2023/08/07 01:13:36;;;;;;;;;;;;;;;;;;5111654;28;20066;-62
2023/08/07 01:16:07;;;;;;;10.88;4.72;;;;;;;;;;5111305;28;20439;-62
2023/08/07 01:18:35;;;;;;;5.80;3.58;;;;;;;;;;5111394;28;20097;-62
2023/08/07 01:21:01;;;;;;;9.10;3.55;;;;;;;;;;5144187;27;20043;-62
2023/08/07 01:23:27;;;;;;;7.72;3.70;;;;;;;;;;5111143;28;20040;-62
2023/08/07 01:25:53;;;;;;;7.72;3.25;;;;;;;;;;5110443;28;20035;-62
2023/08/07 01:28:33;;;;;;;5.38;3.15;;;;;;;;;;5110429;28;20054;-62
2023/08/07 01:31:02;;;;;;;7.15;3.47;;;;;;;;;;5111143;28;20052;-62
2023/08/07 01:33:43;;;;;;;8.02;3.03;;;;;;;;;;5110765;28;20043;-62
2023/08/07 01:36:10;;;;;;;8.85;2.85;;;;;;;;;;5110794;28;20082;-62
2023/08/07 01:38:37;;;;;;;7.95;3.28;;;;;;;;;;5111122;28;20044;-62
2023/08/07 01:41:03;;;;;;;7.95;2.63;;;;;;;;;;5111045;28;20059;-62
2023/08/07 01:43:29;;;;;;;10.80;3.22;;;;;;;;;;5109297;28;20040;-62
2023/08/07 01:45:55;;;;;;;7.32;2.92;;;;;;;;;;5110987;28;20031;-62
2023/08/07 01:48:21;;;;;;;12.77;3.22;;;;;;;;;;5110363;28;20400;-62
2023/08/07 01:50:47;;;;;;;7.82;3.13;;;;;;;;;;5110848;28;20035;-62
2023/08/07 01:53:13;;;;;;;8.55;2.97;;;;;;;;;;5110452;28;20035;-62
2023/08/07 01:55:39;;;;;;;9.95;2.55;;;;;;;;;;5110307;28;20047;-62
2023/08/07 01:58:05;;;;;;;7.43;2.38;;;;;;;;;;5110755;28;20539;-62
2023/08/07 02:00:31;;;;;;;13.48;2.72;;;;;;;;;;5110642;28;20473;-62
2023/08/07 02:02:57;;;;;;;11.38;2.50;;;;;;;;;;5110141;28;20071;-62
2023/08/07 02:05:23;;;;;;;10.80;2.58;;;;;;;;;;5110252;28;20119;-62
2023/08/07 02:07:49;;;;;;;6.88;2.30;;;;;;;;;;5110314;28;20127;-62
2023/08/07 02:10:15;;;;;;;9.35;2.70;;;;;;;;;;5110411;28;20134;-62
2023/08/07 02:12:41;;;;;;;7.78;2.20;;;;;;;;;;5109850;28;20074;-62
2023/08/07 02:15:07;;;;;;;10.20;2.55;;;;;;;;;;5110432;28;20094;-62
2023/08/07 02:17:35;;;;;;;15.18;2.75;;;;;;;;;;5109942;28;20040;-62
2023/08/07 02:20:01;;;;;;;10.77;2.53;;;;;;;;;;5109817;28;20114;-62
2023/08/07 02:22:27;;;;;;;11.57;2.47;;;;;;;;;;5109762;28;20123;-62
2023/08/07 02:24:53;;;;;;;13.88;2.60;;;;;;;;;;5110169;28;20076;-62
2023/08/07 02:27:19;;;;;;;7.60;2.30;;;;;;;;;;5109612;28;20072;-62
2023/08/07 02:29:45;;;;;;;11.18;2.78;;;;;;;;;;5110157;28;20601;-62
2023/08/07 02:32:11;;;;;;;16.83;2.58;;;;;;;;;;5110088;28;20035;-62
2023/08/07 02:34:37;;;;;;;10.75;2.40;;;;;;;;;;5109701;28;20039;-62
2023/08/07 02:37:03;;;;;;;12.90;3.33;;;;;;;;;;5109711;28;20044;-62
2023/08/07 02:39:29;;;;;;;7.53;2.40;;;;;;;;;;5109727;28;20043;-62
2023/08/07 02:41:55;;;;;;;11.73;2.63;;;;;;;;;;5109490;28;20050;-62
2023/08/07 02:44:21;;;;;;;10.95;2.40;;;;;;;;;;5108089;28;20047;-62
2023/08/07 02:46:47;;;;;;;13.45;2.70;;;;;;;;;;5109841;28;20382;-62
2023/08/07 02:49:13;;;;;;;13.27;2.72;;;;;;;;;;5109492;28;20528;-62
2023/08/07 02:51:39;;;;;;;10.35;2.28;;;;;;;;;;5109881;28;20457;-62
2023/08/07 02:54:05;;;;;;;8.98;2.65;;;;;;;;;;5109713;28;20070;-62
2023/08/07 02:56:32;;;;;;;8.15;2.83;;;;;;;;;;5109194;28;20089;-62
2023/08/07 02:58:59;;;;;;;7.30;1.98;;;;;;;;;;5109634;28;20091;-62
2023/08/07 03:01:25;;;;;;;12.70;2.90;;;;;;;;;;5109700;28;20473;-62
2023/08/07 03:03:51;;;;;;;8.15;2.58;;;;;;;;;;5109268;28;20401;-62
2023/08/07 03:06:17;;;;;;;12.88;2.63;;;;;;;;;;5108423;28;20039;-62
2023/08/07 03:08:43;;;;;;;9.85;2.40;;;;;;;;;;5109594;28;20503;-62
2023/08/07 03:11:09;;;;;;;9.93;2.70;;;;;;;;;;5109247;28;20048;-62
2023/08/07 03:13:35;;;;;;;9.60;2.10;;;;;;;;;;5109058;28;20135;-62
2023/08/07 03:16:05;;;;;;;12.55;2.67;;;;;;;;;;5109392;28;20492;-62
2023/08/07 03:18:32;;;;;;;8.35;2.10;;;;;;;;;;5108934;28;20047;-62
2023/08/07 03:20:58;;;;;;;12.32;2.22;;;;;;;;;;5109386;28;20492;-62
2023/08/07 03:23:25;;;;;;;16.42;2.53;;;;;;;;;;5109254;28;20043;-62
2023/08/07 03:25:52;;;;;;;11.15;2.70;;;;;;;;;;5101363;28;20029;-62
2023/08/07 03:28:18;;;;;;;11.35;2.70;;;;;;;;;;5089248;28;20047;-62
2023/08/07 03:30:44;;;;;;;11.10;2.28;;;;;;;;;;5089171;28;20490;-62
2023/08/07 03:33:10;;;;;;;9.95;2.60;;;;;;;;;;5088478;28;20058;-62
2023/08/07 03:35:36;;;;;;;12.30;2.30;;;;;;;;;;5088991;28;20040;-62
2023/08/07 03:38:02;;;;;;;13.38;2.40;;;;;;;;;;5088976;28;20036;-62
2023/08/07 03:40:28;;;;;;;12.57;2.85;;;;;;;;;;5088644;28;20040;-62
2023/08/07 03:42:54;;;;;;;13.25;2.50;;;;;;;;;;5088978;28;20040;-62
2023/08/07 03:45:20;;;;;;;12.68;2.60;;;;;;;;;;5088528;28;20028;-62
2023/08/07 03:47:46;;;;;;;7.80;1.90;;;;;;;;;;5088423;28;20054;-62
2023/08/07 03:50:12;;;;;;;13.52;2.20;;;;;;;;;;5090548;28;20398;-62
2023/08/07 03:52:38;;;;;;;10.48;2.30;;;;;;;;;;5092682;28;20044;-62
2023/08/07 03:55:04;;;;;;;17.23;2.83;;;;;;;;;;5092396;28;20123;-62
2023/08/07 03:57:30;;;;;;;6.85;2.42;;;;;;;;;;5092265;28;20100;-62
2023/08/07 03:59:56;;;;;;;9.45;2.50;;;;;;;;;;5092689;28;20115;-62
2023/08/07 04:02:22;;;;;;;13.05;2.63;;;;;;;;;;5092373;28;20043;-62
2023/08/07 04:04:48;;;;;;;10.68;2.58;;;;;;;;;;5092673;28;20047;-62
2023/08/07 04:07:14;;;;;;;14.45;2.88;;;;;;;;;;5093096;28;20438;-62
2023/08/07 04:09:40;;;;;;;10.63;3.17;;;;;;;;;;5112568;28;20047;-62
2023/08/07 04:12:07;;;;;;;12.30;2.85;;;;;;;;;;5112607;28;20059;-62
2023/08/07 04:14:33;;;;;;;14.40;2.95;;;;;;;;;;5112601;28;20052;-62
2023/08/07 04:17:00;;;;;;;9.15;3.05;;;;;;;;;;5112121;28;20047;-62
2023/08/07 04:19:26;;;;;;;13.80;3.03;;;;;;;;;;5112640;28;20043;-62
2023/08/07 04:21:52;;;;;;;12.82;3.08;;;;;;;;;;5113483;28;20093;-62
2023/08/07 04:24:18;;;;;;;9.70;2.85;;;;;;;;;;5114340;28;20178;-62
2023/08/07 04:26:44;;;;;;;10.30;2.38;;;;;;;;;;5114436;28;20167;-62
2023/08/07 04:29:10;;;;;;;14.90;3.08;;;;;;;;;;5113839;28;20035;-62
2023/08/07 04:31:37;;;;;;;8.93;2.60;;;;;;;;;;5113818;28;20146;-62
2023/08/07 04:34:03;;;;;;;12.57;3.17;;;;;;;;;;5113742;28;20092;-62
2023/08/07 04:36:29;;;;;;;11.32;3.08;;;;;;;;;;5113067;28;20040;-62
2023/08/07 04:38:55;;;;;;;9.40;3.90;;;;;;;;;;5112914;28;20046;-62
2023/08/07 04:41:21;;;;;;;10.68;3.08;;;;;;;;;;5113346;28;20035;-62
2023/08/07 04:43:48;;;;;;;12.73;3.17;;;;;;;;;;5113645;28;20066;-62
2023/08/07 04:46:14;;;;;;;10.93;2.95;;;;;;;;;;5113204;28;20043;-62
2023/08/07 04:48:41;;;;;;;11.77;4.55;;;;;;;;;;5113360;28;20043;-62
2023/08/07 04:51:07;;;;;;;13.50;3.53;;;;;;;;;;5113909;28;20062;-62
2023/08/07 04:53:33;;;;;;;14.75;4.70;;;;;;;;;;5113411;28;20043;-62
2023/08/07 04:56:02;;;;;;;18.38;3.97;;;;;;;;;;5113720;28;20039;-62
2023/08/07 04:58:28;;;;;;;12.57;3.72;;;;;;;;;;5113524;28;20465;-62
2023/08/07 05:00:57;;;;;;;11.93;3.30;;;;;;;;;;5113058;28;20035;-62
2023/08/07 05:03:23;;;;;;;13.27;3.22;;;;;;;;;;5113617;28;20110;-62
2023/08/07 05:05:49;;;;;;;13.90;3.70;;;;;;;;;;5113508;28;20040;-62
2023/08/07 05:08:15;;;;;;;16.95;4.70;;;;;;;;;;5113217;28;20043;-62
2023/08/07 05:10:41;;;;;;;12.30;3.30;;;;;;;;;;5112162;28;20127;-62
2023/08/07 05:13:07;;;;;;;12.80;3.00;;;;;;;;;;5113270;28;20134;-62
2023/08/07 05:15:33;;;;;;;6.57;2.88;;;;;;;;;;5113152;28;20459;-62
2023/08/07 05:17:59;;;;;;;10.35;2.70;;;;;;;;;;5113572;28;20075;-62
2023/08/07 05:20:26;;;;;;;8.27;2.50;;;;;;;;;;5113296;28;20039;-62
2023/08/07 05:22:51;;;;;;;6.47;2.50;;;;;;;;;;5113023;28;20063;-62
2023/08/07 05:25:18;;;;;;;9.88;2.70;;;;;;;;;;5110440;28;20429;-62
2023/08/07 05:27:45;;;;;;;7.68;2.60;;;;;;;;;;5092957;28;20039;-62
2023/08/07 05:30:11;;;;;;;8.05;2.67;;;;;;;;;;5092285;28;20051;-62
2023/08/07 05:32:37;;;;;;;8.48;2.65;;;;;;;;;;5092535;28;20036;-62
2023/08/07 05:35:07;;;;;;;11.02;2.78;;;;;;;;;;5092429;28;20512;-62
2023/08/07 05:37:33;;;;;;;10.82;2.85;;;;;;;;;;5091899;28;20127;-62
2023/08/07 05:39:59;;;;;;;13.32;3.28;;;;;;;;;;5108429;28;20114;-62
2023/08/07 05:42:25;;;;;;;11.80;3.45;;;;;;;;;;5118487;27;20037;-62
2023/08/07 05:44:51;;;;;;;9.35;2.85;;;;;;;;;;5133099;27;20393;-62
2023/08/07 05:47:17;;;;;;;14.60;4.30;;;;;;;;;;5126867;27;20589;-61
2023/08/07 05:49:43;;;;;;;13.90;3.78;;;;;;;;;;5133259;27;20045;-61
2023/08/07 05:52:09;;;;;;;15.85;3.30;;;;;;;;;;5133055;27;20047;-61
2023/08/07 05:54:35;;;;;;;11.43;3.38;;;;;;;;;;5132457;27;20039;-62
2023/08/07 05:57:01;;;;;;;13.50;3.55;;;;;;;;;;5133046;27;20385;-61
2023/08/07 05:59:28;;;;;;;11.90;3.80;;;;;;;;;;5132677;27;20481;-61
2023/08/07 06:01:54;;;;;;;12.48;3.35;;;;;;;;;;5132306;27;20118;-61
2023/08/07 06:04:21;;;;;;;9.45;3.60;;;;;;;;;;5132873;27;20039;-61
2023/08/07 06:06:47;;;;;;;16.85;4.05;;;;;;;;;;5132543;27;20095;-61
2023/08/07 06:09:16;;;;;;;17.75;3.80;;;;;;;;;;5114713;27;20067;-61
2023/08/07 06:11:42;;;;;;;24.15;4.25;;;;;;;;;;5127520;27;20118;-61
2023/08/07 06:14:08;;;;;;;14.32;4.03;;;;;;;;;;5131999;27;20500;-62
2023/08/07 06:16:34;;;;;;;15.45;4.90;;;;;;;;;;5132382;27;20040;-62
2023/08/07 06:19:00;;;;;;;17.80;4.05;;;;;;;;;;5132380;27;20031;-62
2023/08/07 06:21:28;;;;;;;21.75;4.43;;;;;;;;;;5132809;27;20035;-62
2023/08/07 06:23:54;;;;;;;21.15;4.65;;;;;;;;;;5131911;27;20042;-63
2023/08/07 06:26:20;;;;;;;20.55;4.95;;;;;;;;;;5124222;27;20069;-63
2023/08/07 06:28:46;;;;;;;15.43;4.13;;;;;;;;;;5132381;27;20548;-62
2023/08/07 06:31:13;;;;;;;11.27;3.85;;;;;;;;;;5131852;27;20031;-63
2023/08/07 06:33:39;;;;;;;14.45;2.78;;;;;;;;;;5124292;27;20046;-62
2023/08/07 06:36:05;;;;;;;7.00;2.03;;;;;;;;;;5132086;27;20031;-62
2023/08/07 06:38:31;;;;;;;7.80;2.03;;;;;;;;;;5131350;27;20045;-62
2023/08/07 06:40:57;;;;;;;9.30;2.15;;;;;;;;;;5130399;27;20046;-62
2023/08/07 06:43:23;;;;;;;7.13;2.45;;;;;;;;;;5126704;27;20041;-62
2023/08/07 06:45:50;;;;;;;8.65;2.63;;;;;;;;;;5113112;27;20584;-61
2023/08/07 06:48:16;;;;;;;6.82;2.30;;;;;;;;;;5131639;27;20043;-62
2023/08/07 06:50:42;;;;;;;8.70;2.80;;;;;;;;;;5131354;27;20045;-61
2023/08/07 06:53:08;;;;;;;7.85;2.65;;;;;;;;;;5131184;27;20465;-60
2023/08/07 06:55:34;;;;;;;12.15;2.47;;;;;;;;;;5131584;27;20050;-61
2023/08/07 06:58:00;;;;;;;13.25;3.05;;;;;;;;;;5131664;27;20104;-61
2023/08/07 07:00:26;;;;;;;12.60;3.63;;;;;;;;;;5131409;27;20126;-61
2023/08/07 07:02:53;;;;;;;9.13;2.63;;;;;;;;;;5131061;27;20462;-61
2023/08/07 07:05:19;;;;;;;14.50;3.45;;;;;;;;;;5131711;27;20369;-61
2023/08/07 07:07:45;;;;;;;12.23;3.42;;;;;;;;;;5125982;27;20050;-61
2023/08/07 07:10:11;;;;;;;12.35;3.70;;;;;;;;;;5115417;28;20052;-61
2023/08/07 07:12:37;;;;;;;10.35;3.45;;;;;;;;;;5129785;28;20532;-62
2023/08/07 07:15:03;;;;;;;19.30;3.85;;;;;;;;;;5130893;27;20614;-62
2023/08/07 07:17:29;;;;;;;14.65;3.65;;;;;;;;;;5131475;28;20644;-61
2023/08/07 07:19:56;;;;;;;11.60;3.30;;;;;;;;;;5131026;27;20031;-62
2023/08/07 07:22:23;;;;;;;12.23;3.33;;;;;;;;;;5130698;27;20088;-62
2023/08/07 07:24:49;;;;;;;13.00;3.05;;;;;;;;;;5132514;27;20525;-61
2023/08/07 07:27:15;;;;;;;11.10;3.35;;;;;;;;;;5128053;27;20043;-62
2023/08/07 07:29:41;;;;;;;12.13;3.03;;;;;;;;;;5135281;27;20046;-61
2023/08/07 07:32:07;;;;;;;11.30;3.72;;;;;;;;;;5135223;27;20039;-62
2023/08/07 07:34:33;;;;;;;6.38;2.42;;;;;;;;;;5135122;27;20488;-61
2023/08/07 07:36:59;;;;;;;8.80;2.63;;;;;;;;;;5135131;27;20046;-61
2023/08/07 07:39:25;;;;;;;10.05;2.30;;;;;;;;;;5135388;27;20034;-61
2023/08/07 07:41:51;;;;;;;9.20;2.47;;;;;;;;;;5135204;27;20125;-61
2023/08/07 07:44:17;;;;;;;5.15;1.88;;;;;;;;;;5127548;27;20095;-61
2023/08/07 07:46:43;;;;;;;8.90;2.10;;;;;;;;;;5134843;27;20035;-61
2023/08/07 07:49:09;;;;;;;6.13;1.80;;;;;;;;;;5135052;27;20122;-61
2023/08/07 07:51:37;;;;;;;5.25;2.10;;;;;;;;;;5134607;27;20042;-61
2023/08/07 07:54:03;;;;;;;7.88;2.05;;;;;;;;;;5135129;27;20458;-61
2023/08/07 07:56:29;;;;;;;6.22;1.85;;;;;;;;;;5134921;27;20043;-62
2023/08/07 07:58:55;;;;;;;7.82;1.65;;;;;;;;;;5131416;27;20043;-60
2023/08/07 08:01:21;;;;;;;3.35;1.50;;;;;;;;;;5135052;27;20038;-60
2023/08/07 08:03:47;;;;;;;5.72;1.70;;;;;;;;;;5134308;27;20039;-61
2023/08/07 08:06:13;;;;;;;7.25;2.13;;;;;;;;;;5134726;27;20039;-61
2023/08/07 08:08:39;;;;;;;8.38;1.70;;;;;;;;;;5122174;27;20039;-61
2023/08/07 08:11:05;;;;;;;3.20;1.70;;;;;;;;;;5123511;27;20466;-61
2023/08/07 08:13:31;;;;;;;7.80;1.80;;;;;;;;;;5134092;27;20211;-61
2023/08/07 08:15:58;;;;;;;4.28;1.80;;;;;;;;;;5131637;27;20038;-62
2023/08/07 08:18:24;;;;;;;8.35;2.00;;;;;;;;;;5134618;27;20106;-62
2023/08/07 08:20:50;;;;;;;6.57;2.42;;;;;;;;;;5133022;27;20107;-62
2023/08/07 08:23:16;;;;;;;7.00;2.40;;;;;;;;;;5133378;27;20095;-62
2023/08/07 08:25:42;;;;;;;8.10;2.38;;;;;;;;;;5128405;27;20074;-62
2023/08/07 08:28:08;;;;;;;11.95;2.83;;;;;;;;;;5131391;27;20043;-63
2023/08/07 08:30:34;;;;;;;10.13;2.53;;;;;;;;;;5134178;27;20035;-62
2023/08/07 08:33:00;;;;;;;9.68;2.60;;;;;;;;;;5134454;27;20487;-63
2023/08/07 08:35:26;;;;;;;8.73;2.42;;;;;;;;;;5133094;27;20434;-63
2023/08/07 08:37:52;;;;;;;9.13;2.70;;;;;;;;;;5134529;27;20039;-63
2023/08/07 08:40:19;;;;;;;14.90;2.70;;;;;;;;;;5117657;27;20036;-63
2023/08/07 08:42:45;;;;;;;11.18;2.90;;;;;;;;;;5115004;27;20047;-62
2023/08/07 08:45:13;;;;;;;14.38;3.20;;;;;;;;;;5113384;28;20043;-62
2023/08/07 08:47:46;;;;;;;13.35;3.30;;;;;;;;;;5126833;27;20094;-61
2023/08/07 08:50:14;;;;;;;10.02;3.60;;;;;;;;;;5133704;27;20050;-62
2023/08/07 08:52:42;;;;;;;14.38;3.53;;;;;;;;;;5133656;27;20082;-61
2023/08/07 08:55:09;;;;;;;18.30;3.80;;;;;;;;;;5133547;27;20381;-62
2023/08/07 08:57:35;;;;;;;10.82;3.25;;;;;;;;;;5133801;27;20047;-61
2023/08/07 09:00:17;;;;;;;13.50;3.38;;;;;;;;;;5128951;27;20032;-61
2023/08/07 09:02:44;;;;;;;9.02;3.15;;;;;;;;;;5133227;27;20079;-62
2023/08/07 09:05:10;;;;;;;13.77;3.60;;;;;;;;;;5133317;27;20035;-62
2023/08/07 09:07:36;;;;;;;13.27;2.95;;;;;;;;;;5126751;27;20104;-62
2023/08/07 09:10:03;;;;;;;13.20;3.53;;;;;;;;;;5113475;28;20180;-62
2023/08/07 09:12:32;;;;;;;10.70;3.15;;;;;;;;;;5131746;27;20055;-63
2023/08/07 09:14:58;;;;;;;12.90;2.88;;;;;;;;;;5121647;27;20163;-63
2023/08/07 09:17:26;;;;;;;12.80;4.05;;;;;;;;;;5104122;28;20051;-63
2023/08/07 09:19:53;;;;;;;12.35;3.17;;;;;;;;;;5122543;27;20453;-64
2023/08/07 09:22:19;;;;;;;11.10;2.97;;;;;;;;;;5111128;27;20036;-59
2023/08/07 09:24:45;;;;;;;13.70;2.60;;;;;;;;;;5113551;27;20044;-59
2023/08/07 09:27:11;;;;;;;11.50;2.63;;;;;;;;;;5113621;27;20032;-58
2023/08/07 09:29:40;;;;;;;9.48;2.75;;;;;;;;;;5109226;28;20043;-64
2023/08/07 09:32:09;;;;;;;8.95;3.15;;;;;;;;;;5110333;28;21482;-63
2023/08/07 09:34:36;;;;;;;7.00;2.10;;;;;;;;;;5112380;27;20125;-63
2023/08/07 09:37:02;;;;;;;9.00;2.65;;;;;;;;;;5110463;28;20039;-63
2023/08/07 09:39:30;;;;;;;10.80;2.50;;;;;;;;;;5112391;27;20039;-64
2023/08/07 09:41:56;;;;;;;8.38;2.60;;;;;;;;;;5114299;27;20039;-63
2023/08/07 09:44:22;;;;;;;8.07;2.50;;;;;;;;;;5120811;27;20351;-64
2023/08/07 09:46:48;;;;;;;7.38;2.70;;;;;;;;;;5112880;27;20163;-64
2023/08/07 09:49:14;;;;;;;6.85;2.13;;;;;;;;;;5115073;27;20048;-63
2023/08/07 09:51:43;;;;;;;7.30;2.22;;;;;;;;;;5116250;27;20040;-62
2023/08/07 09:54:09;;;;;;;7.88;2.55;;;;;;;;;;5111532;27;20031;-63
2023/08/07 09:56:36;;;;;;;11.65;2.70;;;;;;;;;;5109589;27;20040;-63
2023/08/07 09:59:02;;;;;;;12.98;2.70;;;;;;;;;;5112733;27;20124;-64
2023/08/07 10:01:28;;;;;;;11.85;2.30;;;;;;;;;;5109821;28;20038;-64
2023/08/07 10:03:54;;;;;;;6.78;2.25;;;;;;;;;;5129112;27;20035;-62
2023/08/07 10:06:21;;;;;;;18.65;2.42;;;;;;;;;;5113333;27;20039;-62
2023/08/07 10:08:48;;;;;;;10.10;2.58;;;;;;;;;;5108563;28;20036;-63
2023/08/07 10:11:14;;;;;;;8.73;2.65;;;;;;;;;;5111298;27;20039;-63
2023/08/07 10:13:41;;;;;;;6.93;2.10;;;;;;;;;;5110234;28;20059;-63
2023/08/07 10:16:07;;;;;;;10.60;2.10;;;;;;;;;;5125909;27;20043;-63
2023/08/07 10:18:34;;;;;;;7.38;1.95;;;;;;;;;;5118029;27;20066;-64
2023/08/07 10:21:01;;;;;;;9.38;2.35;;;;;;;;;;5115696;27;20489;-61
2023/08/07 10:23:27;;;;;;;8.20;2.35;;;;;;;;;;5114022;27;20164;-62
2023/08/07 10:25:54;;;;;;;8.23;2.05;;;;;;;;;;5123771;27;20031;-61
2023/08/07 10:28:20;;;;;;;11.30;3.30;;;;;;;;;;5130755;27;20039;-62
2023/08/07 10:30:48;;;;;;;7.55;2.28;;;;;;;;;;5130311;27;20752;-63
2023/08/07 10:33:15;;;;;;;4.32;2.15;;;;;;;;;;5113988;27;20039;-64
2023/08/07 10:35:46;;;;;;;8.93;2.25;;;;;;;;;;5115107;27;20128;-64
2023/08/07 10:38:13;;;;;;;9.70;2.22;;;;;;;;;;5111194;27;20043;-64
2023/08/07 10:40:57;;;;;;;7.38;2.22;;;;;;;;;;5127947;27;20047;-64
2023/08/07 10:43:24;;;;;;;6.43;2.15;;;;;;;;;;5130891;27;20039;-64
2023/08/07 10:45:51;;;;;;;10.45;2.60;;;;;;;;;;5131646;27;20042;-64
2023/08/07 10:48:21;;;;;;;7.32;1.70;;;;;;;;;;5102758;27;20147;-64
2023/08/07 10:51:00;;;;;;;14.25;2.40;;;;;;;;;;5099140;27;20040;-64
2023/08/07 10:53:32;;;;;;;6.90;2.33;;;;;;;;;;5090561;28;20047;-64
2023/08/07 10:55:58;;;;;;;;;;;;;;;;;;5110621;27;20078;-64
2023/08/07 10:58:26;;;;;;;11.02;2.42;;;;;;;;;;5113943;27;19973;-64
2023/08/07 11:01:12;;;;;;;10.25;2.55;;;;;;;;;;5125773;27;20039;-64
2023/08/07 11:03:41;;;;;;;7.35;2.42;;;;;;;;;;5123790;27;20117;-63
2023/08/07 11:06:07;;;;;;;7.50;2.00;;;;;;;;;;5111399;28;20355;-63
2023/08/07 11:08:33;;;;;;;7.15;2.60;;;;;;;;;;5109424;27;20036;-64
2023/08/07 11:11:04;;;;;;;5.13;2.13;;;;;;;;;;5110030;28;20062;-63
2023/08/07 11:13:31;;;;;;;10.02;2.90;;;;;;;;;;5107529;28;20047;-64
2023/08/07 11:15:57;;;;;;;7.38;2.40;;;;;;;;;;5114659;28;20055;-64
2023/08/07 11:18:23;;;;;;;7.43;2.45;;;;;;;;;;5125708;27;20035;-64
2023/08/07 11:20:49;;;;;;;8.07;2.05;;;;;;;;;;5114572;27;20139;-64
2023/08/07 11:23:15;;;;;;;4.45;1.90;;;;;;;;;;5119067;28;20041;-64
2023/08/07 11:25:42;;;;;;;6.43;1.88;;;;;;;;;;5124317;27;20035;-65
2023/08/07 11:28:08;;;;;;;5.05;1.67;;;;;;;;;;5111263;28;20118;-64
2023/08/07 11:30:35;;;;;;;5.65;1.90;;;;;;;;;;5110301;28;20048;-65
2023/08/07 11:33:02;;;;;;;7.40;1.80;;;;;;;;;;5113743;28;20048;-64
2023/08/07 11:35:28;;;;;;;4.55;1.88;;;;;;;;;;5121081;28;20050;-65
2023/08/07 11:37:54;;;;;;;9.70;1.95;;;;;;;;;;5110250;27;20035;-65
2023/08/07 11:40:20;;;;;;;5.45;1.95;;;;;;;;;;5112622;28;20047;-64
2023/08/07 11:42:47;;;;;;;5.38;1.80;;;;;;;;;;5106165;28;20457;-62
2023/08/07 11:45:13;;;;;;;9.52;1.65;;;;;;;;;;5107595;28;20071;-64
2023/08/07 11:47:39;;;;;;;5.75;1.80;;;;;;;;;;5121136;28;20051;-64
2023/08/07 11:50:06;;;;;;;4.97;2.00;;;;;;;;;;5130638;27;20043;-64
2023/08/07 11:52:32;;;;;;;5.50;1.60;;;;;;;;;;5103808;28;20039;-63
2023/08/07 11:54:58;;;;;;;5.75;1.73;;;;;;;;;;5102758;28;20039;-63
2023/08/07 11:57:25;;;;;;;4.85;1.67;;;;;;;;;;5122250;27;20044;-62
2023/08/07 11:59:51;;;;;;;4.90;1.73;;;;;;;;;;5109408;28;20078;-65
2023/08/07 12:02:17;;;;;;;4.82;1.60;;;;;;;;;;5110354;28;20100;-64
2023/08/07 12:04:44;;;;;;;5.72;1.95;;;;;;;;;;5130116;27;20067;-64
2023/08/07 12:07:11;;;;;;;5.75;1.80;;;;;;;;;;5120044;27;20040;-64
2023/08/07 12:09:38;;;;;;;7.22;2.20;;;;;;;;;;5108313;28;20039;-64
2023/08/07 12:12:04;;;;;;;8.10;1.70;;;;;;;;;;5123201;27;20054;-64
2023/08/07 12:14:30;;;;;;;6.63;1.92;;;;;;;;;;5115137;27;20485;-64
2023/08/07 12:16:56;;;;;;;6.68;1.85;;;;;;;;;;5112385;28;20474;-65
2023/08/07 12:19:22;;;;;;;8.15;2.05;;;;;;;;;;5108795;28;20047;-65
2023/08/07 12:21:48;;;;;;;6.28;1.95;;;;;;;;;;5108596;28;20038;-64
2023/08/07 12:24:14;;;;;;;6.50;1.80;;;;;;;;;;5117513;27;20044;-65
2023/08/07 12:26:40;;;;;;;5.07;2.25;;;;;;;;;;5116359;27;20031;-62
2023/08/07 12:29:07;;;;;;;8.27;2.35;;;;;;;;;;5120355;27;20039;-64
2023/08/07 12:31:33;;;;;;;9.98;2.13;;;;;;;;;;5123474;27;20043;-63
2023/08/07 12:33:59;;;;;;;8.02;2.05;;;;;;;;;;5109922;27;20077;-65
2023/08/07 12:36:25;;;;;;;9.55;2.42;;;;;;;;;;5111593;28;20060;-63
2023/08/07 12:38:51;;;;;;;6.43;2.40;;;;;;;;;;5108446;27;20060;-60
2023/08/07 12:41:17;;;;;;;6.13;1.70;;;;;;;;;;5116071;27;20039;-63
2023/08/07 12:43:43;;;;;;;5.85;2.28;;;;;;;;;;5111931;28;20537;-63
2023/08/07 12:46:09;;;;;;;6.90;2.00;;;;;;;;;;5113239;28;20118;-63
2023/08/07 12:48:35;;;;;;;7.07;2.13;;;;;;;;;;5112668;27;20039;-64
2023/08/07 12:51:01;;;;;;;2.72;1.50;;;;;;;;;;5110616;28;20435;-63
2023/08/07 12:53:29;;;;;;;3.67;1.63;;;;;;;;;;5113581;28;20126;-64
2023/08/07 12:55:55;;;;;;;4.30;1.58;;;;;;;;;;5116926;27;20108;-64
2023/08/07 12:58:25;;;;;;;6.65;1.77;;;;;;;;;;5119109;27;20095;-63
2023/08/07 13:00:51;;;;;;;4.15;1.65;;;;;;;;;;5116742;27;20043;-63
2023/08/07 13:03:17;;;;;;;6.72;1.77;;;;;;;;;;5120321;27;20039;-62
2023/08/07 13:05:43;;;;;;;4.75;2.40;;;;;;;;;;5116059;27;20035;-61
2023/08/07 13:08:09;;;;;;;5.20;1.92;;;;;;;;;;5125026;27;20071;-62
2023/08/07 13:10:35;;;;;;;5.95;1.60;;;;;;;;;;5128614;27;20039;-61
2023/08/07 13:13:01;;;;;;;4.88;1.42;;;;;;;;;;5112654;27;20056;-62
2023/08/07 13:15:29;;;;;;;8.75;1.80;;;;;;;;;;5112260;28;20043;-62
2023/08/07 13:17:55;;;;;;;6.85;1.90;;;;;;;;;;5110387;27;20036;-62
2023/08/07 13:20:21;;;;;;;7.18;2.28;;;;;;;;;;5116537;27;20031;-62
2023/08/07 13:22:47;;;;;;;5.35;1.38;;;;;;;;;;5109618;27;20295;-62
2023/08/07 13:25:14;;;;;;;6.10;1.95;;;;;;;;;;5113720;27;20415;-62
2023/08/07 13:27:40;;;;;;;3.85;1.65;;;;;;;;;;5111514;27;20082;-63
2023/08/07 13:30:07;;;;;;;6.70;2.00;;;;;;;;;;5112618;28;20192;-64
2023/08/07 13:32:33;;;;;;;4.63;1.90;;;;;;;;;;5117313;27;20606;-62
2023/08/07 13:34:59;;;;;;;6.57;1.95;;;;;;;;;;5112917;27;20042;-63
2023/08/07 13:37:25;;;;;;;7.15;2.33;;;;;;;;;;5112337;27;20108;-64
2023/08/07 13:39:52;;;;;;;4.78;2.30;;;;;;;;;;5122614;27;20504;-62
2023/08/07 13:42:19;;;;;;;7.95;2.38;;;;;;;;;;5110873;27;20036;-63
2023/08/07 13:44:45;;;;;;;5.30;2.13;;;;;;;;;;5114946;27;20046;-62
2023/08/07 13:47:11;;;;;;;5.85;2.25;;;;;;;;;;5111351;27;20122;-62
2023/08/07 13:49:38;;;;;;;7.47;2.42;;;;;;;;;;5119618;27;20042;-63
2023/08/07 13:52:04;;;;;;;7.80;2.47;;;;;;;;;;5115786;27;20479;-64
2023/08/07 13:54:30;;;;;;;9.43;2.63;;;;;;;;;;5132256;27;20038;-63
2023/08/07 13:56:57;;;;;;;5.53;2.20;;;;;;;;;;5133290;27;20039;-63
2023/08/07 13:59:23;;;;;;;5.50;2.67;;;;;;;;;;5132919;27;20039;-63
2023/08/07 14:01:49;;;;;;;8.05;2.60;;;;;;;;;;5132778;27;20031;-63
2023/08/07 14:04:16;;;;;;;6.93;2.55;;;;;;;;;;5133025;27;20039;-63
2023/08/07 14:06:44;;;;;;;5.53;2.63;;;;;;;;;;5132885;27;20070;-63
2023/08/07 14:09:11;;;;;;;8.55;3.03;;;;;;;;;;5115622;27;20045;-63
2023/08/07 14:11:37;;;;;;;12.02;3.00;;;;;;;;;;5111837;28;20050;-63
2023/08/07 14:14:03;;;;;;;9.07;3.10;;;;;;;;;;5111737;28;20054;-63
2023/08/07 14:16:29;;;;;;;10.85;2.95;;;;;;;;;;5111766;28;20055;-63
2023/08/07 14:18:55;;;;;;;7.18;2.75;;;;;;;;;;5112219;28;20474;-63
2023/08/07 14:21:21;;;;;;;7.60;2.50;;;;;;;;;;5111926;28;20050;-63
2023/08/07 14:23:49;;;;;;;9.57;3.28;;;;;;;;;;5111590;28;20047;-63
2023/08/07 14:26:15;;;;;;;7.57;2.28;;;;;;;;;;5111845;28;20071;-63
2023/08/07 14:28:42;;;;;;;8.60;2.17;;;;;;;;;;5111476;28;20039;-63
2023/08/07 14:31:08;;;;;;;5.53;2.33;;;;;;;;;;5111573;28;20039;-63
2023/08/07 14:33:35;;;;;;;9.07;2.40;;;;;;;;;;5111353;28;20599;-63